^^
Station Historical Data
Daily Summary for February 9, 2018 Units:  Metric    English   Both
« Previous Day
Next Day »
Daily Weekly Monthly Yearly Custom
  High: Low: Average:
Temperature: -17.8 °C 16.9 °C 21.2 °C
Dew Point: -17.8 °C 12.1 °C 12.8 °C
Humidity: Humidity% 45% 59%
Wind Speed: 0km/h -1609.1km/h -54.2km/h
Wind Gust: 0km/h - -
Wind- -
Pressure: 0 hPa 1001.6 hPa -
Precipitation: 0 mm    
Historical Graphs
 
 
Tabular Data for February 9, 2018
Time Temperature Dew Point Pressure Wind Wind Speed Wind Gust Humidity Rainfall Rate (Hourly) solar Conditions
-17.8 °C -17.8 °C 0 hPa Calm     Humidity% 0 mm SoftwareType W/m2 Conditions
08:59 16.9 °C 13 °C 1003.3 hPa North -1609.1 km/h -1607.7 km/h 78% 0 mm meteobridge W/m2
09:05 17.4 °C 13.1 °C 1003.6 hPa South 3.2 km/h 4.8 km/h 76% 0 mm meteobridge W/m2
09:12 17.8 °C 12.9 °C 1003.6 hPa South 6.4 km/h 8 km/h 73% 0 mm meteobridge W/m2
09:18 17.9 °C 12.8 °C 1003.9 hPa SSE 7.9 km/h 9.7 km/h 72% 0 mm meteobridge W/m2
09:24 17.9 °C 12.6 °C 1003.9 hPa SSE 3.2 km/h 9.7 km/h 71% 0 mm meteobridge W/m2
09:30 18.2 °C 12.4 °C 1003.9 hPa SSE 4.7 km/h 11.3 km/h 69% 0 mm meteobridge W/m2
09:36 18.6 °C 12.8 °C 1003.9 hPa Calm   3.2 km/h 69% 0 mm meteobridge W/m2
09:43 19.2 °C 13.6 °C 1004.3 hPa North 7.9 km/h 9.7 km/h 70% 0 mm meteobridge W/m2
09:49 19 °C 13.8 °C 1004.3 hPa NNE 3.2 km/h 9.7 km/h 72% 0 mm meteobridge W/m2
09:55 19.1 °C 13.5 °C 1004.3 hPa NE 4.7 km/h 6.4 km/h 70% 0 mm meteobridge W/m2
10:01 19.4 °C 13.3 °C 1004.3 hPa NE 7.9 km/h 9.7 km/h 68% 0 mm meteobridge W/m2
10:07 19.3 °C 13 °C 1004.3 hPa NNE 7.9 km/h 12.9 km/h 67% 0 mm meteobridge W/m2
10:13 19 °C 12.7 °C 1004.3 hPa NNE 7.9 km/h 9.7 km/h 67% 0 mm meteobridge W/m2
10:19 19 °C 12.5 °C 1004.3 hPa NNE 7.9 km/h 11.3 km/h 66% 0 mm meteobridge W/m2
10:25 19.2 °C 12.7 °C 1004.3 hPa North 14.3 km/h 14.5 km/h 66% 0 mm meteobridge W/m2
10:31 19.4 °C 12.7 °C 1004.3 hPa NNE 7.9 km/h 11.3 km/h 65% 0 mm meteobridge W/m2
10:37 19.8 °C 12.8 °C 1004.3 hPa NNE 6.4 km/h 9.7 km/h 64% 0 mm meteobridge W/m2
10:44 20.1 °C 12.8 °C 1004.6 hPa NNE 6.4 km/h 11.3 km/h 63% 0 mm meteobridge W/m2
10:50 20.3 °C 13 °C 1004.6 hPa NE 4.7 km/h 11.3 km/h 63% 0 mm meteobridge W/m2
10:56 20.5 °C 12.7 °C 1004.6 hPa NE 7.9 km/h 9.7 km/h 61% 0 mm meteobridge W/m2
11:02 20.5 °C 12.7 °C 1004.6 hPa NE 7.9 km/h 14.5 km/h 61% 0 mm meteobridge W/m2
11:08 20.7 °C 13.2 °C 1004.6 hPa NE 6.4 km/h 9.7 km/h 62% 0 mm meteobridge W/m2
11:14 21.1 °C 13.5 °C 1004.6 hPa ENE 6.4 km/h 8 km/h 62% 0 mm meteobridge W/m2
11:20 22 °C 13.9 °C 1004.3 hPa NNE 6.4 km/h 17.7 km/h 60% 0 mm meteobridge W/m2
11:26 22.2 °C 14.1 °C 1004.3 hPa NE 6.4 km/h 6.4 km/h 60% 0 mm meteobridge W/m2
11:32 22.1 °C 14 °C 1004.3 hPa NE 9.7 km/h 14.5 km/h 60% 0 mm meteobridge W/m2
11:38 22.3 °C 13.4 °C 1004.3 hPa ENE 3.2 km/h 14.5 km/h 57% 0 mm meteobridge W/m2
11:45 23.3 °C 13.2 °C 1004.3 hPa North 6.4 km/h 8 km/h 53% 0 mm meteobridge W/m2
11:51 23.5 °C 13.7 °C 1003.9 hPa East 3.2 km/h 8 km/h 54% 0 mm meteobridge W/m2
11:57 23.8 °C 13.6 °C 1003.9 hPa East 3.2 km/h 3.2 km/h 53% 0 mm meteobridge W/m2
12:03 23.6 °C 12.3 °C 1003.9 hPa SE 6.4 km/h 8 km/h 49% 0 mm meteobridge W/m2
12:09 23.2 °C 12.8 °C 1003.9 hPa Calm   6.4 km/h 52% 0 mm meteobridge W/m2
12:15 23.4 °C 12.7 °C 1003.9 hPa ENE 4.7 km/h 9.7 km/h 51% 0 mm meteobridge W/m2
12:22 23.7 °C 13.3 °C 1003.9 hPa ESE 1.4 km/h 4.8 km/h 52% 0 mm meteobridge W/m2
12:28 23.4 °C 12.1 °C 1003.6 hPa SE 6.4 km/h 11.3 km/h 49% 0 mm meteobridge W/m2
12:34 23.3 °C 12.3 °C 1003.6 hPa SSE 1.4 km/h 4.8 km/h 50% 0 mm meteobridge W/m2
12:40 23.7 °C 13 °C 1003.3 hPa SSW 7.9 km/h 9.7 km/h 51% 0 mm meteobridge W/m2
12:46 24.3 °C 12.9 °C 1003.3 hPa SSW 3.2 km/h 4.8 km/h 49% 0 mm meteobridge W/m2
12:52 25 °C 12.6 °C 1003.3 hPa South 3.2 km/h 8 km/h 46% 0 mm meteobridge W/m2
12:59 25 °C 12.6 °C 1002.9 hPa North 6.4 km/h 17.7 km/h 46% 0 mm meteobridge W/m2
13:05 25 °C 12.9 °C 1002.9 hPa NE 4.7 km/h 6.4 km/h 47% 0 mm meteobridge W/m2
13:25 25.3 °C 12.5 °C 1002.9 hPa NE 4.7 km/h 9.7 km/h 45% 0 mm meteobridge W/m2
13:31 25.1 °C 12.7 °C 1002.9 hPa ENE 3.2 km/h 14.5 km/h 46% 0 mm meteobridge W/m2
13:38 25 °C 12.6 °C 1002.9 hPa NE 3.2 km/h 6.4 km/h 46% 0 mm meteobridge W/m2
13:44 24.8 °C 12.7 °C 1002.6 hPa SSE 4.7 km/h 8 km/h 47% 0 mm meteobridge W/m2
13:50 24.3 °C 12.6 °C 1002.6 hPa ENE 3.2 km/h 9.7 km/h 48% 0 mm meteobridge W/m2
13:56 24.2 °C 12.5 °C 1002.6 hPa ENE 7.9 km/h 9.7 km/h 48% 0 mm meteobridge W/m2
14:02 24 °C 12.6 °C 1002.6 hPa South 4.7 km/h 8 km/h 49% 0 mm meteobridge W/m2
14:08 23.9 °C 12.5 °C 1002.3 hPa South 14.3 km/h 17.7 km/h 49% 0 mm meteobridge W/m2
14:14 23.9 °C 12.8 °C 1002.3 hPa SSW 6.4 km/h 9.7 km/h 50% 0 mm meteobridge W/m2
14:20 23.9 °C 12.2 °C 1002.3 hPa SSW 4.7 km/h 9.7 km/h 48% 0 mm meteobridge W/m2
14:26 24.2 °C 13.1 °C 1002.3 hPa SSW 3.2 km/h 19.3 km/h 50% 0 mm meteobridge W/m2
14:33 24.4 °C 13.3 °C 1002.3 hPa SW 4.7 km/h 11.3 km/h 50% 0 mm meteobridge W/m2
14:39 24.7 °C 13.3 °C 1002.3 hPa SSW 6.4 km/h 16.1 km/h 49% 0 mm meteobridge W/m2
14:45 25.4 °C 14.2 °C 1001.9 hPa SE 17.7 km/h 17.7 km/h 50% 0 mm meteobridge W/m2
14:51 26.2 °C 14.3 °C 1001.9 hPa SSW 7.9 km/h 12.9 km/h 48% 0 mm meteobridge W/m2
14:57 26.4 °C 13.5 °C 1001.9 hPa SSW 3.2 km/h 14.5 km/h 45% 0 mm meteobridge W/m2
15:03 26.5 °C 13.6 °C 1001.9 hPa SSW 7.9 km/h 11.3 km/h 45% 0 mm meteobridge W/m2
15:09 25.9 °C 13.1 °C 1001.9 hPa SW 14.3 km/h 24.1 km/h 45% 0 mm meteobridge W/m2
15:15 24.5 °C 13.7 °C 1001.6 hPa SE 4.7 km/h 16.1 km/h 51% 0 mm meteobridge W/m2
15:24 21.4 °C 13.3 °C 1001.9 hPa NE 22.7 km/h 22.7 km/h 60% 0 mm meteobridge W/m2
15:30 20.2 °C 12.9 °C 1001.9 hPa ENE 19.5 km/h 25.7 km/h 63% 0 mm meteobridge W/m2
15:36 19.9 °C 13.1 °C 1001.9 hPa NE 14.3 km/h 19.3 km/h 65% 0 mm meteobridge W/m2
15:42 19.8 °C 13.3 °C 1001.9 hPa NE 6.4 km/h 20.9 km/h 66% 0 mm meteobridge W/m2
15:48 19.7 °C 13.4 °C 1001.9 hPa NNE 14.3 km/h 20.9 km/h 67% 0 mm meteobridge W/m2
15:54 19.7 °C 14.3 °C 1001.6 hPa NE 13 km/h 20.9 km/h 71% 0 mm meteobridge W/m2
16:00 19.3 °C 14.1 °C 1001.9 hPa North 11.1 km/h 25.7 km/h 72% 0 mm meteobridge W/m2
16:07 19 °C 14 °C 1001.9 hPa ENE 9.7 km/h 17.7 km/h 73% 0 mm meteobridge W/m2
16:13 19.2 °C 14.2 °C 1001.9 hPa NE 16.3 km/h 24.1 km/h 73% 0 mm meteobridge W/m2
16:19 20 °C 14.6 °C 1001.9 hPa NNE 30.6 km/h 30.6 km/h 71% 0 mm meteobridge W/m2
16:25 20.2 °C 14.3 °C 1001.9 hPa NE 20.9 km/h 30.6 km/h 69% 0 mm meteobridge W/m2
16:31 19.9 °C 14 °C 1001.9 hPa North 22.7 km/h 33.8 km/h 69% 0 mm meteobridge W/m2
16:37 19.4 °C 13.8 °C 1002.3 hPa NNE 11.1 km/h 27.4 km/h 70% 0 mm meteobridge W/m2
16:43 19.2 °C 13.6 °C 1002.9 hPa North 14.3 km/h 14.5 km/h 70% 0 mm meteobridge W/m2
16:50 19.2 °C 13.6 °C 1002.9 hPa North 14.3 km/h -1607.7 km/h 70% 0 mm meteobridge W/m2
16:57 19.2 °C 13.6 °C 1003.3 hPa North -1609.1 km/h -1607.7 km/h 70% 0 mm meteobridge W/m2
17:03 19.2 °C 13.6 °C 1002.9 hPa North -1609.1 km/h -1607.7 km/h 70% 0 mm meteobridge W/m2
Regenstein, Windhoek, Namibia
Compliments of Weather Underground - 2.5 mb